Terminal Aerodrome Forecast
Issued by NWS Wilmington, OH

Current Version | Previous Version | Graphics & Text | Print | Product List | Glossary On
Versions: 1 2 3 4 5 6 7 8 9 10 11 12
000
FTUS41 KILN 222335
TAFDAY
TAF
KDAY 222335Z 2300/2324 07004KT P6SM SKC=

USA.gov is the U.S. government's official web portal to all federal, state and local government web resources and services.